Time;durP1;ratioP1;P1;durP2;ratioP2;P2;SDS_P1;SDS_P2;PMS_P1;PMS_P2;Temp;Humidity;BMP_temperature;BMP_pressure;BME280_temperature;BME280_humidity;BME280_pressure;Samples;Min_cycle;Max_cycle;Signal;HPM_P1;HPM_P2
2021/01/22 00:02:14;;;;;;;23.20;15.32;;;;;;;0.90;67.87;100441.22;1761674;80;21846;-62
2021/01/22 00:04:46;;;;;;;24.52;13.75;;;;;;;0.94;67.82;100439.34;1754979;80;21132;-61
2021/01/22 00:07:14;;;;;;;25.45;13.58;;;;;;;0.95;67.77;100437.63;1764969;80;21374;-62
2021/01/22 00:09:41;;;;;;;22.50;14.20;;;;;;;0.91;67.85;100439.03;1769815;80;21208;-62
2021/01/22 00:12:10;;;;;;;24.20;13.55;;;;;;;0.88;67.91;100430.53;1766834;80;21131;-62
2021/01/22 00:14:38;;;;;;;25.02;13.35;;;;;;;0.85;67.97;100421.13;1767316;80;21108;-62
2021/01/22 00:17:06;;;;;;;25.82;14.87;;;;;;;0.83;68.13;100432.00;1765551;80;21147;-61
2021/01/22 00:19:35;;;;;;;24.47;13.40;;;;;;;0.84;68.15;100432.84;1763026;80;21199;-61
2021/01/22 00:22:03;;;;;;;27.30;16.07;;;;;;;0.80;68.28;100429.52;1764311;80;22308;-62
2021/01/22 00:24:30;;;;;;;26.17;15.53;;;;;;;0.79;68.36;100427.86;1758149;80;21638;-62
2021/01/22 00:26:58;;;;;;;27.85;14.83;;;;;;;0.76;68.48;100424.09;1736036;80;21187;-62
2021/01/22 00:29:26;;;;;;;23.90;14.65;;;;;;;0.73;68.57;100419.85;1763890;80;21188;-62
2021/01/22 00:31:54;;;;;;;25.95;13.62;;;;;;;0.73;68.63;100410.79;1739418;80;21155;-61
2021/01/22 00:34:22;;;;;;;25.70;15.23;;;;;;;0.75;68.74;100417.20;1761266;80;21232;-60
2021/01/22 00:36:51;;;;;;;23.32;14.55;;;;;;;0.77;68.74;100411.97;1766483;80;21184;-60
2021/01/22 00:39:19;;;;;;;28.77;16.10;;;;;;;0.77;68.75;100417.98;1762659;80;21152;-60
2021/01/22 00:41:46;;;;;;;32.45;15.85;;;;;;;0.80;68.78;100411.86;1760569;80;21175;-60
2021/01/22 00:44:15;;;;;;;31.17;16.67;;;;;;;0.80;68.80;100406.67;1761728;80;21191;-61
2021/01/22 00:46:43;;;;;;;21.57;14.83;;;;;;;0.81;68.77;100401.87;1759328;80;21860;-61
2021/01/22 00:49:10;;;;;;;28.38;15.13;;;;;;;0.79;68.87;100405.84;1760079;80;21164;-61
2021/01/22 00:51:38;;;;;;;27.73;16.23;;;;;;;0.81;68.82;100401.87;1738108;80;21183;-61
2021/01/22 00:54:07;;;;;;;27.73;17.10;;;;;;;0.80;68.87;100401.03;1761474;80;21183;-61
2021/01/22 00:56:36;;;;;;;29.18;18.12;;;;;;;0.81;68.85;100401.87;1758268;80;21201;-61
2021/01/22 00:59:05;;;;;;;24.10;14.00;;;;;;;0.79;68.97;100399.36;1767409;80;21149;-61
2021/01/22 01:01:34;;;;;;;26.10;16.07;;;;;;;0.78;69.04;100389.89;1735709;82;21227;-61
2021/01/22 01:04:03;;;;;;;22.40;14.47;;;;;;;0.75;69.13;100395.19;1767339;80;21191;-61
2021/01/22 01:06:34;;;;;;;26.60;14.83;;;;;;;0.70;69.26;100390.18;1767184;80;21418;-61
2021/01/22 01:09:05;;;;;;;29.35;14.75;;;;;;;0.76;69.31;100385.66;1747071;80;21198;-61
2021/01/22 01:11:46;;;;;;;25.43;16.60;;;;;;;0.78;69.30;100379.53;1871506;76;22659;-61
2021/01/22 01:14:19;;;;;;;27.73;17.20;;;;;;;0.79;69.22;100382.53;1825701;76;21120;-62
2021/01/22 01:16:48;;;;;;;26.73;15.98;;;;;;;0.80;69.25;100379.48;1836928;77;21204;-61
2021/01/22 01:19:15;;;;;;;24.85;14.90;;;;;;;0.78;69.27;100380.83;1846560;75;21112;-61
2021/01/22 01:21:43;;;;;;;26.40;15.95;;;;;;;0.76;69.39;100378.76;1822824;76;21234;-61
2021/01/22 01:24:11;;;;;;;25.70;17.00;;;;;;;0.80;69.33;100369.12;1830293;76;22602;-61
2021/01/22 01:26:39;;;;;;;27.73;15.98;;;;;;;0.78;69.35;100366.58;1848229;75;21739;-61
2021/01/22 01:29:07;;;;;;;23.32;15.98;;;;;;;0.78;69.37;100359.27;1831461;77;21834;-62
2021/01/22 01:31:34;;;;;;;23.47;14.80;;;;;;;0.76;69.43;100354.16;1844316;75;21586;-65
2021/01/22 01:34:02;;;;;;;26.37;16.50;;;;;;;0.72;69.50;100352.57;1854333;77;21179;-61
2021/01/22 01:36:29;;;;;;;23.75;15.25;;;;;;;0.68;69.69;100357.49;1855002;75;21848;-62
2021/01/22 01:38:57;;;;;;;33.67;17.25;;;;;;;0.62;69.81;100352.55;1845325;76;21405;-62
2021/01/22 01:41:25;;;;;;;28.47;15.68;;;;;;;0.60;69.94;100359.53;1845913;77;21964;-62
2021/01/22 01:43:53;;;;;;;23.02;15.85;;;;;;;0.57;70.02;100354.02;1840964;75;21194;-62
2021/01/22 01:46:20;;;;;;;31.33;17.25;;;;;;;0.60;70.02;100341.41;1852415;77;21609;-63
2021/01/22 01:48:48;;;;;;;30.95;17.20;;;;;;;0.61;70.05;100349.58;1826510;75;21230;-63
2021/01/22 01:51:16;;;;;;;28.52;18.12;;;;;;;0.62;70.04;100355.13;1812500;77;21194;-63
2021/01/22 01:53:44;;;;;;;24.30;16.05;;;;;;;0.60;70.19;100349.18;1823118;77;22057;-62
2021/01/22 01:56:12;;;;;;;27.90;14.93;;;;;;;0.60;70.22;100347.89;1841848;76;21194;-62
2021/01/22 01:58:39;;;;;;;24.90;15.03;;;;;;;0.60;70.29;100348.72;1853295;77;21115;-65
2021/01/22 02:01:09;;;;;;;25.30;16.73;;;;;;;0.57;70.37;100351.42;1838740;75;21622;-62
2021/01/22 02:03:36;;;;;;;27.32;15.93;;;;;;;0.53;70.53;100349.41;1812383;77;21111;-62
2021/01/22 02:06:05;;;;;;;27.55;16.55;;;;;;;0.51;70.67;100352.98;1832954;75;21654;-62
2021/01/22 02:08:32;;;;;;;28.70;16.42;;;;;;;0.52;70.62;100345.58;1852910;77;21123;-61
2021/01/22 02:11:02;;;;;;;26.25;15.75;;;;;;;0.53;70.69;100343.40;1821132;77;21233;-63
2021/01/22 02:13:30;;;;;;;22.77;14.18;;;;;;;0.55;70.62;100341.16;1839513;77;21226;-61
2021/01/22 02:15:59;;;;;;;28.30;15.60;;;;;;;0.54;70.73;100332.15;1829929;77;21170;-61
2021/01/22 02:18:29;;;;;;;29.10;16.35;;;;;;;0.54;70.75;100334.28;1834067;77;21120;-61
2021/01/22 02:21:31;;;;;;;33.75;16.35;;;;;;;0.54;70.75;100324.38;1829502;77;21166;-61
2021/01/22 02:24:17;;;;;;;28.17;16.45;;;;;;;0.57;70.76;100320.81;1826525;76;21176;-62
2021/01/22 02:27:03;;;;;;;26.17;15.90;;;;;;;0.60;70.81;100316.81;1836073;75;21742;-61
2021/01/22 02:29:32;;;;;;;22.73;15.08;;;;;;;0.59;70.81;100314.69;1833252;75;21136;-61
2021/01/22 02:32:04;;;;;;;29.32;15.23;;;;;;;0.65;70.78;100318.77;1843998;77;21493;-62
2021/01/22 02:34:34;;;;;;;23.80;14.78;;;;;;;0.64;70.76;100320.52;1823962;75;21222;-62
2021/01/22 02:37:05;;;;;;;25.23;15.03;;;;;;;0.64;70.75;100317.93;1842952;77;21103;-62
2021/01/22 02:39:40;;;;;;;31.37;16.55;;;;;;;0.67;70.78;100310.47;1832732;76;21170;-62
2021/01/22 02:42:08;;;;;;;26.45;15.18;;;;;;;0.68;70.75;100310.42;1810722;77;21151;-63
2021/01/22 02:44:36;;;;;;;22.48;13.60;;;;;;;0.68;70.77;100313.47;1854450;75;21203;-62
2021/01/22 02:47:10;;;;;;;28.62;14.83;;;;;;;0.67;70.78;100315.22;1838073;77;21634;-62
2021/01/22 02:49:38;;;;;;;27.00;15.83;;;;;;;0.70;70.71;100316.83;1857687;77;21120;-62
2021/01/22 02:52:06;;;;;;;25.27;15.63;;;;;;;0.70;70.75;100317.66;1846419;75;21206;-62
2021/01/22 02:54:34;;;;;;;25.80;15.93;;;;;;;0.74;70.71;100315.36;1850919;75;21107;-62
2021/01/22 02:57:29;;;;;;;23.38;14.80;;;;;;;0.85;70.56;100312.32;1846829;77;21191;-63
2021/01/22 03:00:14;;;;;;;18.70;12.45;;;;;;;0.91;70.46;100305.60;1840072;75;21147;-60
2021/01/22 03:02:53;;;;;;;25.30;16.32;;;;;;;0.89;70.49;100319.51;1833446;77;21506;-61
2021/01/22 03:05:24;;;;;;;28.95;15.13;;;;;;;0.84;70.56;100315.84;1831423;77;21728;-61
2021/01/22 03:07:55;;;;;;;34.70;16.48;;;;;;;0.81;70.61;100308.19;1854793;75;21557;-61
2021/01/22 03:10:23;;;;;;;26.10;14.20;;;;;;;0.85;70.61;100302.42;1843435;77;21222;-61
2021/01/22 03:12:51;;;;;;;26.00;15.88;;;;;;;0.87;70.58;100310.50;1837678;77;21123;-61
2021/01/22 03:15:20;;;;;;;29.77;14.43;;;;;;;0.95;70.37;100310.20;1827373;77;21203;-61
2021/01/22 03:17:48;;;;;;;23.42;15.00;;;;;;;0.95;70.33;100303.72;1821475;77;21123;-61
2021/01/22 03:20:18;;;;;;;23.15;15.18;;;;;;;0.97;70.27;100298.48;1828049;77;21159;-61
2021/01/22 03:22:46;;;;;;;28.80;15.35;;;;;;;0.93;70.31;100292.13;1810759;77;21132;-61
2021/01/22 03:25:13;;;;;;;23.12;14.20;;;;;;;0.93;70.32;100287.41;1846883;75;21100;-60
2021/01/22 03:27:41;;;;;;;24.63;14.20;;;;;;;0.93;70.42;100288.23;1852694;77;21661;-61
2021/01/22 03:30:10;;;;;;;23.95;14.18;;;;;;;1.03;70.25;100287.41;1841097;77;21214;-61
2021/01/22 03:32:38;;;;;;;20.97;14.15;;;;;;;1.11;70.06;100277.56;1855956;77;21140;-61
2021/01/22 03:35:08;;;;;;;25.30;14.05;;;;;;;1.14;70.06;100283.52;1828042;77;22366;-62
2021/01/22 03:37:35;;;;;;;20.88;14.68;;;;;;;1.17;70.12;100279.04;1825123;77;21646;-63
2021/01/22 03:40:05;;;;;;;22.67;14.28;;;;;;;1.19;70.03;100277.22;1834563;77;21104;-63
2021/01/22 03:42:33;;;;;;;24.37;14.68;;;;;;;1.17;69.99;100273.86;1845891;75;21162;-61
2021/01/22 03:45:00;;;;;;;24.40;14.80;;;;;;;1.09;70.03;100261.67;1839128;77;21136;-63
2021/01/22 03:47:29;;;;;;;24.07;15.08;;;;;;;1.07;70.13;100260.91;1826731;77;21196;-63
2021/01/22 03:49:56;;;;;;;23.12;13.55;;;;;;;1.03;70.22;100256.31;1821769;77;21191;-62
2021/01/22 03:52:24;;;;;;;27.55;14.00;;;;;;;1.02;70.30;100264.14;1829210;75;21627;-62
2021/01/22 03:54:52;;;;;;;19.82;12.68;;;;;;;0.98;70.40;100270.38;1836988;77;21203;-61
2021/01/22 03:57:20;;;;;;;29.23;15.40;;;;;;;0.97;70.42;100268.69;1851533;77;21155;-61
2021/01/22 03:59:47;;;;;;;21.25;12.45;;;;;;;0.95;70.54;100271.80;1851576;75;21608;-62
2021/01/22 04:02:14;;;;;;;27.50;14.95;;;;;;;0.93;70.64;100265.38;1843656;77;21203;-61
2021/01/22 04:04:42;;;;;;;24.00;13.95;;;;;;;0.90;70.68;100265.05;1834430;75;21111;-62
2021/01/22 04:07:13;;;;;;;21.60;14.00;;;;;;;0.87;70.83;100267.76;1842570;75;21096;-66
2021/01/22 04:09:42;;;;;;;21.75;13.08;;;;;;;0.87;70.90;100268.22;1830845;75;21151;-62
2021/01/22 04:12:11;;;;;;;22.58;13.53;;;;;;;0.85;70.97;100260.97;1848376;77;21253;-61
2021/01/22 04:14:39;;;;;;;25.40;13.48;;;;;;;0.85;71.06;100268.74;1804507;77;21191;-64
2021/01/22 04:17:07;;;;;;;25.20;12.80;;;;;;;0.83;71.14;100273.98;1831174;77;21429;-64
2021/01/22 04:19:36;;;;;;;28.32;15.45;;;;;;;0.82;71.21;100277.47;1845545;77;21160;-63
2021/01/22 04:22:04;;;;;;;26.50;15.32;;;;;;;0.83;71.21;100275.28;1830701;77;21104;-63
2021/01/22 04:24:31;;;;;;;24.57;13.40;;;;;;;0.88;71.18;100266.03;1827110;76;21653;-62
2021/01/22 04:26:58;;;;;;;22.95;14.87;;;;;;;0.94;71.13;100283.89;1848069;76;22041;-62
2021/01/22 04:29:26;;;;;;;23.50;14.13;;;;;;;0.91;71.20;100280.98;1853335;77;21543;-63
2021/01/22 04:31:54;;;;;;;26.73;14.05;;;;;;;0.89;71.28;100275.47;1782626;79;21222;-63
2021/01/22 04:34:21;;;;;;;24.77;16.12;;;;;;;0.88;71.32;100270.75;1794444;77;21132;-66
2021/01/22 04:36:49;;;;;;;24.52;14.60;;;;;;;0.93;71.26;100268.81;1792803;79;21388;-63
2021/01/22 04:39:18;;;;;;;31.62;16.67;;;;;;;0.97;71.20;100270.81;1792964;79;21152;-64
2021/01/22 04:41:46;;;;;;;26.00;15.93;;;;;;;0.99;71.15;100263.81;1793356;77;21569;-63
2021/01/22 04:44:16;;;;;;;27.13;14.87;;;;;;;0.98;71.16;100271.22;1775120;78;21144;-63
2021/01/22 04:46:44;;;;;;;26.25;16.80;;;;;;;0.98;71.19;100276.86;1797310;77;21125;-63
2021/01/22 04:49:12;;;;;;;26.90;16.75;;;;;;;0.99;71.16;100274.17;1785933;77;21216;-64
2021/01/22 04:51:39;;;;;;;24.60;15.32;;;;;;;1.06;71.03;100273.47;1793752;77;21185;-63
2021/01/22 04:54:23;;;;;;;31.15;16.07;;;;;;;1.07;70.99;100273.40;1801739;77;21474;-62
2021/01/22 04:56:51;;;;;;;22.82;16.62;;;;;;;1.10;70.92;100280.22;1759611;80;21115;-60
2021/01/22 04:59:24;;;;;;;27.40;17.45;;;;;;;1.07;70.94;100265.62;1776034;79;21178;-68
2021/01/22 05:01:52;;;;;;;28.12;15.53;;;;;;;1.06;70.96;100261.37;1761471;79;21449;-61
2021/01/22 05:04:19;;;;;;;31.55;17.23;;;;;;;1.03;71.03;100255.48;1792342;79;21488;-61
2021/01/22 05:06:50;;;;;;;28.27;16.00;;;;;;;1.13;70.95;100255.47;1765891;79;21187;-64
2021/01/22 05:09:19;;;;;;;21.90;14.28;;;;;;;1.20;70.76;100255.59;1766779;77;21133;-62
2021/01/22 05:11:54;;;;;;;27.58;17.87;;;;;;;1.19;70.75;100261.67;1803068;77;21173;-62
2021/01/22 05:14:22;;;;;;;24.20;15.55;;;;;;;1.13;70.92;100250.72;1760749;79;21615;-61
2021/01/22 05:17:08;;;;;;;27.35;15.88;;;;;;;1.04;71.09;100258.01;1801273;77;21236;-63
2021/01/22 05:19:38;;;;;;;27.98;15.83;;;;;;;0.96;71.29;100252.30;1805564;78;21175;-63
2021/01/22 05:22:10;;;;;;;32.10;16.10;;;;;;;0.91;71.39;100262.86;1806894;77;21136;-61
2021/01/22 05:24:38;;;;;;;24.43;14.28;;;;;;;0.87;71.59;100270.81;1804075;77;21220;-63
2021/01/22 05:27:11;;;;;;;25.50;13.22;;;;;;;0.82;71.75;100268.87;1800560;78;21177;-64
2021/01/22 05:29:41;;;;;;;27.67;15.18;;;;;;;0.77;71.87;100272.10;1768319;78;21183;-66
2021/01/22 05:32:28;;;;;;;29.10;14.70;;;;;;;0.81;71.93;100271.92;1768296;78;21592;-62
2021/01/22 05:34:57;;;;;;;31.57;17.95;;;;;;;0.83;71.95;100271.86;1786920;80;21177;-62
2021/01/22 05:37:25;;;;;;;24.43;15.40;;;;;;;0.80;72.06;100281.88;1813809;77;21108;-64
2021/01/22 05:40:14;;;;;;;25.10;14.63;;;;;;;0.79;72.18;100268.98;1802643;77;21173;-62
2021/01/22 05:42:55;;;;;;;23.18;15.18;;;;;;;0.80;72.18;100266.34;1807019;77;21129;-62
2021/01/22 05:45:41;;;;;;;26.02;15.60;;;;;;;0.80;72.17;100270.22;1747983;77;21604;-62
2021/01/22 05:48:21;;;;;;;27.07;16.95;;;;;;;0.77;72.28;100282.00;1809662;77;21168;-61
2021/01/22 05:50:56;;;;;;;27.13;16.50;;;;;;;0.76;72.38;100275.16;1808180;77;21215;-63
2021/01/22 05:53:24;;;;;;;26.17;15.93;;;;;;;0.81;72.32;100268.03;1802105;77;21260;-60
2021/01/22 05:56:10;;;;;;;29.45;16.75;;;;;;;0.88;72.20;100272.05;1758997;77;21183;-60
2021/01/22 05:58:42;;;;;;;29.10;16.35;;;;;;;0.90;72.21;100274.11;1768992;77;21192;-62
2021/01/22 06:01:13;;;;;;;27.10;16.80;;;;;;;0.88;72.29;100275.09;1802276;77;22564;-61
2021/01/22 06:03:46;;;;;;;34.33;16.62;;;;;;;0.86;72.36;100267.85;1803101;77;21564;-62
2021/01/22 06:06:15;;;;;;;31.40;17.45;;;;;;;0.89;72.35;100265.11;1756438;77;21612;-63
2021/01/22 06:08:51;;;;;;;24.90;14.53;;;;;;;0.95;72.17;100262.73;1800504;77;21181;-62
2021/01/22 06:11:21;;;;;;;;;;;;;;;0.95;72.19;100266.62;1806854;77;21529;-60
2021/01/22 06:13:50;;;;;;;27.50;17.85;;;;;;;0.91;72.22;100269.33;1808106;77;20329;-61
2021/01/22 06:16:22;;;;;;;32.13;16.40;;;;;;;0.85;72.36;100276.05;1768181;78;21195;-61
2021/01/22 06:18:58;;;;;;;30.60;18.15;;;;;;;0.91;72.31;100279.70;1776178;78;21302;-60
2021/01/22 06:21:28;;;;;;;;;;;;;;;0.97;72.25;100276.45;1782216;79;21221;-60
2021/01/22 06:24:01;;;;;;;26.45;16.93;;;;;;;0.97;72.35;100272.57;1777711;78;20276;-63
2021/01/22 06:26:33;;;;;;;25.17;16.20;;;;;;;0.87;72.51;100263.87;1782565;77;21214;-61
2021/01/22 06:29:02;;;;;;;31.02;15.48;;;;;;;0.87;72.54;100265.17;1778984;77;21149;-60
2021/01/22 06:31:31;;;;;;;24.60;14.58;;;;;;;0.95;72.46;100261.44;1798303;77;21251;-61
2021/01/22 06:34:01;;;;;;;30.75;18.12;;;;;;;0.97;72.40;100266.09;1788710;78;21599;-62
2021/01/22 06:36:33;;;;;;;28.90;15.95;;;;;;;1.02;72.28;100262.85;1795914;77;21120;-61
2021/01/22 06:39:02;;;;;;;21.85;14.30;;;;;;;1.03;72.29;100255.02;1806633;77;21119;-61
2021/01/22 06:41:31;;;;;;;26.20;16.87;;;;;;;1.08;72.19;100260.84;1808380;77;21142;-63
2021/01/22 06:44:00;;;;;;;22.87;15.65;;;;;;;1.10;72.09;100259.02;1760422;78;21494;-59
2021/01/22 06:46:30;;;;;;;30.08;17.35;;;;;;;1.24;71.91;100268.78;1798406;77;21206;-63
2021/01/22 06:49:03;;;;;;;29.67;18.52;;;;;;;1.36;71.63;100263.98;1818684;77;21215;-63
2021/01/22 06:51:35;;;;;;;26.55;15.08;;;;;;;1.40;71.83;100273.34;1816652;77;21449;-67
2021/01/22 06:54:18;;;;;;;30.62;17.42;;;;;;;1.38;71.64;100263.45;1814302;77;21100;-67
2021/01/22 06:56:57;;;;;;;29.07;18.12;;;;;;;1.34;71.58;100258.87;1743430;78;21214;-64
2021/01/22 06:59:39;;;;;;;27.62;16.07;;;;;;;1.31;71.64;100262.88;1815113;77;21195;-65
2021/01/22 07:02:38;;;;;;;26.52;16.30;;;;;;;1.33;71.66;100260.23;1811565;77;21096;-64
2021/01/22 07:05:34;;;;;;;32.00;17.77;;;;;;;1.30;71.56;100256.03;1814893;77;21191;-65
2021/01/22 07:08:03;;;;;;;28.65;16.97;;;;;;;1.30;71.61;100246.96;1772973;78;21606;-62
2021/01/22 07:11:01;;;;;;;30.32;17.80;;;;;;;1.41;71.44;100254.25;1779994;78;22943;-66
2021/01/22 07:13:35;;;;;;;28.98;16.80;;;;;;;1.46;71.30;100247.11;1804661;77;21137;-64
2021/01/22 07:16:19;;;;;;;34.55;18.07;;;;;;;1.46;71.29;100264.83;1814827;77;21193;-64
2021/01/22 07:18:57;;;;;;;28.17;18.07;;;;;;;1.46;71.34;100264.83;1790867;78;21229;-62
2021/01/22 07:24:16;;;;;;;29.82;17.32;;;;;;;1.52;71.17;100252.03;1875936;74;22783;-66
2021/01/22 07:26:46;;;;;;;26.95;16.82;;;;;;;1.49;71.08;100259.48;1825477;74;21498;-68
2021/01/22 07:29:25;;;;;;;25.20;16.57;;;;;;;1.48;70.98;100254.39;1875876;74;21492;-61
2021/01/22 07:34:48;;;;;;;26.93;15.78;;;;;;;1.45;71.11;100257.95;1822270;76;22708;-62
2021/01/22 07:37:23;;;;;;;23.62;16.32;;;;;;;1.43;71.16;100261.50;1777140;79;21120;-65
2021/01/22 07:39:53;;;;;;;29.15;16.32;;;;;;;1.53;71.05;100252.44;1768018;79;22620;-63
2021/01/22 07:42:23;;;;;;;27.10;17.77;;;;;;;1.66;70.83;100263.08;1795440;79;21001;-61
2021/01/22 07:44:52;;;;;;;25.45;15.25;;;;;;;1.73;70.53;100264.52;1764374;80;21191;-63
2021/01/22 07:47:28;;;;;;;26.23;15.15;;;;;;;1.75;70.47;100265.27;1765642;80;21235;-62
2021/01/22 07:50:12;;;;;;;30.30;17.65;;;;;;;1.71;70.33;100255.94;1799018;79;21152;-63
2021/01/22 07:52:49;;;;;;;29.50;16.93;;;;;;;1.66;70.38;100257.89;1799236;79;23652;-61
2021/01/22 07:55:23;;;;;;;27.13;15.78;;;;;;;1.63;70.51;100264.08;1796035;79;21203;-64
2021/01/22 07:58:02;;;;;;;25.50;14.75;;;;;;;1.66;70.42;100262.65;1805614;79;21582;-62
2021/01/22 08:00:38;;;;;;;25.20;16.82;;;;;;;1.65;70.45;100259.66;1794300;79;21171;-63
2021/01/22 08:03:06;;;;;;;30.50;15.05;;;;;;;1.67;70.34;100263.02;1805987;79;21191;-61
2021/01/22 08:05:36;;;;;;;31.12;17.48;;;;;;;1.68;70.43;100265.14;1789950;79;23525;-63
2021/01/22 08:08:20;;;;;;;21.52;14.63;;;;;;;1.79;70.25;100264.68;1794529;79;21124;-65
2021/01/22 08:10:51;;;;;;;26.80;16.15;;;;;;;1.88;69.96;100260.81;1759126;79;21223;-64
2021/01/22 08:13:20;;;;;;;27.42;17.05;;;;;;;1.88;69.82;100256.92;1794439;79;21159;-61
2021/01/22 08:16:04;;;;;;;24.60;15.50;;;;;;;1.89;70.04;100274.19;1765980;79;21182;-62
2021/01/22 08:18:32;;;;;;;25.35;14.85;;;;;;;1.91;69.99;100259.38;1785335;77;21453;-64
2021/01/22 08:21:00;;;;;;;24.20;14.40;;;;;;;1.94;69.84;100262.67;1761334;79;21214;-63
2021/01/22 08:23:33;;;;;;;25.52;17.10;;;;;;;1.98;69.67;100257.71;1792459;79;21671;-64
2021/01/22 08:26:00;;;;;;;25.72;16.02;;;;;;;1.99;69.50;100260.70;1792092;79;21200;-65
2021/01/22 08:28:31;;;;;;;31.95;18.57;;;;;;;1.98;69.46;100260.31;1762187;79;21639;-63
2021/01/22 08:30:59;;;;;;;25.02;15.78;;;;;;;2.06;69.44;100259.13;1794247;79;21204;-62
2021/01/22 08:33:27;;;;;;;27.60;15.58;;;;;;;2.19;69.18;100252.45;1764255;79;21479;-66
2021/01/22 08:35:55;;;;;;;27.05;14.35;;;;;;;2.29;69.03;100259.36;1791889;79;21183;-61
2021/01/22 08:38:24;;;;;;;24.05;14.80;;;;;;;2.34;68.92;100258.20;1792932;79;21180;-60
2021/01/22 08:40:51;;;;;;;27.32;16.15;;;;;;;2.37;68.86;100246.82;1791833;79;21199;-62
2021/01/22 08:43:19;;;;;;;25.52;15.88;;;;;;;2.41;68.80;100251.80;1792321;77;21282;-61
2021/01/22 08:46:06;;;;;;;26.20;16.17;;;;;;;2.50;68.39;100251.80;1763007;79;21218;-64
2021/01/22 08:48:52;;;;;;;28.38;14.45;;;;;;;2.56;68.27;100246.78;1878456;74;22862;-62
2021/01/22 08:51:30;;;;;;;26.52;15.53;;;;;;;2.57;67.94;100242.82;1776431;78;21187;-63
2021/01/22 08:53:57;;;;;;;24.02;14.78;;;;;;;2.62;67.97;100244.34;1814609;77;21214;-60
2021/01/22 08:56:26;;;;;;;24.63;15.13;;;;;;;2.67;67.60;100232.79;1754681;78;21231;-64
2021/01/22 09:01:51;;;;;;;21.60;14.45;;;;;;;2.90;67.41;100233.41;1869831;76;22033;-63
2021/01/22 09:07:17;;;;;;;22.98;13.83;;;;;;;3.27;66.61;100225.86;1784153;77;22710;-60
2021/01/22 09:09:49;;;;;;;24.18;15.20;;;;;;;3.33;66.25;100236.42;1741834;80;21171;-65
2021/01/22 09:12:33;;;;;;;23.67;15.03;;;;;;;3.33;65.96;100230.75;1744048;78;21202;-59
2021/01/22 09:15:12;;;;;;;26.52;15.48;;;;;;;3.34;66.01;100228.98;1765563;78;21215;-61
2021/01/22 09:17:46;;;;;;;25.25;14.30;;;;;;;3.35;65.99;100215.89;1778771;80;21195;-60
2021/01/22 09:20:21;;;;;;;25.55;15.88;;;;;;;3.38;65.88;100217.51;1757734;80;21170;-62
2021/01/22 09:22:53;;;;;;;25.00;17.87;;;;;;;3.41;65.86;100217.32;1739278;80;21069;-61
2021/01/22 09:25:26;;;;;;;24.37;15.65;;;;;;;3.47;65.86;100223.98;1759244;80;21277;-63
2021/01/22 09:27:53;;;;;;;23.80;15.08;;;;;;;3.56;65.64;100221.34;1778180;78;21219;-63
2021/01/22 09:30:26;;;;;;;26.42;17.37;;;;;;;3.58;65.51;100212.98;1758882;80;21349;-59
2021/01/22 09:32:58;;;;;;;25.45;15.40;;;;;;;3.62;65.36;100210.14;1775994;78;21195;-61
2021/01/22 09:35:29;;;;;;;25.20;15.40;;;;;;;3.65;65.38;100211.76;1760430;80;21191;-59
2021/01/22 09:37:57;;;;;;;22.62;15.20;;;;;;;3.70;65.36;100206.67;1772551;78;21410;-59
2021/01/22 09:40:25;;;;;;;24.60;15.32;;;;;;;3.78;65.19;100213.21;1742252;78;21199;-59
2021/01/22 09:42:53;;;;;;;23.25;14.00;;;;;;;3.81;65.04;100212.58;1772252;78;21117;-60
2021/01/22 09:45:21;;;;;;;23.52;14.70;;;;;;;3.89;64.88;100206.97;1755030;80;21487;-62
2021/01/22 09:47:49;;;;;;;23.10;14.50;;;;;;;4.05;64.62;100195.23;1769577;78;21410;-60
2021/01/22 09:50:19;;;;;;;24.07;15.72;;;;;;;4.20;64.29;100203.95;1767569;79;21610;-61
2021/01/22 09:52:47;;;;;;;23.27;12.70;;;;;;;4.32;64.17;100181.57;1772894;80;21168;-67
2021/01/22 09:55:17;;;;;;;24.80;15.65;;;;;;;4.39;63.81;100187.66;1754132;78;21116;-63
2021/01/22 09:57:45;;;;;;;21.90;14.35;;;;;;;4.41;63.63;100181.89;1769195;80;21594;-60
2021/01/22 10:00:18;;;;;;;23.35;14.13;;;;;;;4.41;63.44;100179.28;1743744;79;21590;-60
2021/01/22 10:03:58;;;;;;;23.55;13.90;;;;;;;4.43;63.45;100169.61;1800984;79;22554;-60
2021/01/22 10:06:25;;;;;;;21.60;15.08;;;;;;;4.44;63.42;100175.68;1744122;80;21616;-61
2021/01/22 10:08:53;;;;;;;25.50;13.30;;;;;;;4.48;63.37;100178.47;1783269;78;21168;-58
2021/01/22 10:11:21;;;;;;;22.37;14.68;;;;;;;4.51;63.24;100174.39;1718836;81;21666;-60
2021/01/22 10:16:34;;;;;;;23.75;15.28;;;;;;;4.63;62.99;100163.70;1869036;76;22595;-60
2021/01/22 10:19:03;;;;;;;25.65;15.08;;;;;;;4.61;62.78;100159.06;1846189;77;21131;-60
2021/01/22 10:21:31;;;;;;;22.77;13.18;;;;;;;4.59;62.90;100156.54;1844386;75;21198;-60
2021/01/22 10:23:58;;;;;;;20.25;12.85;;;;;;;4.58;62.75;100144.42;1847117;77;21143;-61
2021/01/22 10:26:26;;;;;;;24.20;15.23;;;;;;;4.58;62.63;100152.25;1846001;77;21147;-62
2021/01/22 10:28:54;;;;;;;22.30;13.93;;;;;;;4.59;62.55;100150.02;1842717;77;21144;-61
2021/01/22 10:31:22;;;;;;;20.92;13.90;;;;;;;4.59;62.00;100142.66;1786312;78;21168;-62
2021/01/22 10:33:49;;;;;;;24.23;15.03;;;;;;;4.63;62.13;100144.99;1784906;78;21187;-60
2021/01/22 10:36:17;;;;;;;23.12;14.33;;;;;;;4.82;61.98;100143.90;1784789;79;21200;-60
2021/01/22 10:38:46;;;;;;;23.70;14.85;;;;;;;4.98;61.18;100136.84;1753255;78;21646;-60
2021/01/22 10:41:14;;;;;;;24.20;15.48;;;;;;;5.11;60.95;100134.33;1783464;78;21612;-59
2021/01/22 10:43:41;;;;;;;19.42;13.10;;;;;;;5.11;60.95;100134.33;1787296;78;21175;-59
2021/01/22 10:46:09;;;;;;;20.95;14.78;;;;;;;5.18;60.71;100130.41;1786957;78;21371;-59
2021/01/22 10:48:38;;;;;;;26.35;16.00;;;;;;;5.20;60.31;100124.62;1777865;79;21127;-59
2021/01/22 10:51:07;;;;;;;29.75;14.68;;;;;;;5.15;59.69;100118.02;1790430;78;21174;-59
2021/01/22 10:53:35;;;;;;;23.73;14.38;;;;;;;4.95;60.07;100114.02;1791652;79;21135;-60
2021/01/22 10:56:06;;;;;;;25.68;15.83;;;;;;;4.83;60.61;100118.21;1791718;78;21163;-59
2021/01/22 10:58:33;;;;;;;24.55;14.85;;;;;;;4.79;60.92;100107.58;1788557;79;21200;-59
2021/01/22 11:01:01;;;;;;;20.55;14.15;;;;;;;4.80;61.13;100101.45;1791003;79;21447;-59
2021/01/22 11:03:30;;;;;;;24.92;15.30;;;;;;;4.83;60.99;100104.70;1781196;79;21122;-61
2021/01/22 11:05:58;;;;;;;23.05;15.53;;;;;;;4.87;60.97;100101.92;1747952;80;21215;-61
2021/01/22 11:08:25;;;;;;;21.97;13.58;;;;;;;4.90;60.91;100098.66;1784286;80;21143;-61
2021/01/22 11:10:53;;;;;;;24.30;13.95;;;;;;;4.92;60.67;100099.86;1759674;80;21200;-59
2021/01/22 11:13:21;;;;;;;20.35;12.78;;;;;;;4.90;61.02;100093.44;1749006;80;21585;-59
2021/01/22 11:15:48;;;;;;;26.05;14.07;;;;;;;4.96;60.95;100088.30;1781353;80;21184;-59
2021/01/22 11:18:16;;;;;;;19.70;12.18;;;;;;;4.98;60.81;100079.47;1782092;78;21238;-59
2021/01/22 11:20:43;;;;;;;20.92;13.22;;;;;;;4.98;60.58;100080.77;1781776;78;21619;-60
2021/01/22 11:23:11;;;;;;;20.30;13.35;;;;;;;5.00;60.76;100080.20;1784727;80;21472;-61
2021/01/22 11:25:39;;;;;;;18.77;13.30;;;;;;;5.13;60.62;100070.34;1780705;80;21172;-60
2021/01/22 11:28:07;;;;;;;26.17;14.05;;;;;;;5.23;60.58;100062.30;1776228;80;21136;-61
2021/01/22 11:30:34;;;;;;;26.73;14.65;;;;;;;5.26;60.42;100063.42;1754850;80;21232;-62
2021/01/22 11:33:02;;;;;;;25.15;14.65;;;;;;;5.27;60.48;100049.90;1753996;79;21207;-60
2021/01/22 11:35:34;;;;;;;22.48;14.10;;;;;;;5.31;60.28;100046.15;1806747;77;21380;-60
2021/01/22 11:38:01;;;;;;;24.77;14.98;;;;;;;5.36;60.11;100044.08;1766847;80;21158;-60
2021/01/22 11:40:29;;;;;;;21.33;12.95;;;;;;;5.38;60.07;100050.89;1811974;77;21188;-61
2021/01/22 11:42:56;;;;;;;24.05;15.15;;;;;;;5.39;60.01;100052.55;1809399;78;21136;-60
2021/01/22 11:45:24;;;;;;;24.23;14.10;;;;;;;5.41;60.04;100053.75;1808847;78;22593;-60
2021/01/22 11:47:51;;;;;;;23.45;13.45;;;;;;;5.44;59.98;100050.13;1777903;78;21214;-62
2021/01/22 11:50:20;;;;;;;23.87;14.78;;;;;;;5.48;59.94;100047.68;1810089;77;21160;-60